createdAt,value
2022-10-31T17:02:04.381Z,33.33
2022-10-31T17:03:36.569Z,34.80
2022-10-31T17:05:11.980Z,33.20
2022-10-31T17:06:43.683Z,33.80
2022-10-31T17:08:15.332Z,34.20
2022-10-31T17:09:47.085Z,36.00
2022-10-31T17:11:20.257Z,32.00
2022-10-31T17:12:52.273Z,31.60
2022-10-31T17:14:24.024Z,32.20
2022-10-31T17:15:57.062Z,33.00
2022-10-31T17:17:28.831Z,32.00
2022-10-31T17:19:00.601Z,30.80
2022-10-31T17:20:32.480Z,31.40
2022-10-31T17:22:04.205Z,30.80
2022-10-31T17:23:36.925Z,28.40
2022-10-31T17:25:11.069Z,28.20
2022-10-31T17:26:42.845Z,29.60
2022-10-31T17:28:14.773Z,35.20
2022-10-31T17:29:46.511Z,33.60
2022-10-31T17:31:28.787Z,38.00
2022-10-31T17:33:01.313Z,35.60
2022-10-31T17:34:33.842Z,37.20
2022-10-31T17:36:06.014Z,33.20
2022-10-31T17:37:37.741Z,35.20
2022-10-31T17:39:09.742Z,33.80
2022-10-31T17:40:42.416Z,35.20
2022-10-31T17:42:14.174Z,34.60
2022-10-31T17:43:45.885Z,34.40
2022-10-31T17:45:18.037Z,33.00
2022-10-31T17:46:50.395Z,35.40
2022-10-31T17:48:22.092Z,33.80
2022-10-31T17:49:53.834Z,33.20
2022-10-31T17:51:25.533Z,33.20
2022-10-31T17:52:58.430Z,33.00
2022-10-31T17:54:30.309Z,34.00
2022-10-31T17:56:08.870Z,34.80
2022-10-31T17:57:40.692Z,36.00
2022-10-31T17:59:12.375Z,36.00
2022-10-31T18:00:47.241Z,34.20
2022-10-31T18:02:22.448Z,35.20
2022-10-31T18:03:54.225Z,34.20
2022-10-31T18:05:26.050Z,35.00
2022-10-31T18:06:57.767Z,35.20
2022-10-31T18:08:31.086Z,37.20
2022-10-31T18:10:02.901Z,34.20
2022-10-31T18:11:34.662Z,35.20
2022-10-31T18:13:06.431Z,34.20
2022-10-31T18:14:38.173Z,34.00
2022-10-31T18:16:11.152Z,34.20
2022-10-31T18:17:42.847Z,40.00
2022-10-31T18:19:16.111Z,38.50
2022-10-31T18:20:47.854Z,35.20
2022-10-31T18:22:19.614Z,38.80
2022-10-31T18:23:55.960Z,37.00
2022-10-31T18:25:27.797Z,39.20
2022-10-31T18:26:59.519Z,34.00
2022-10-31T18:28:31.306Z,39.20
2022-10-31T18:30:03.097Z,38.80
2022-10-31T18:31:34.888Z,35.20
2022-10-31T18:33:06.564Z,36.40
2022-10-31T18:34:38.224Z,38.20
2022-10-31T18:36:10.110Z,40.25
2022-10-31T18:37:41.757Z,35.20
2022-10-31T18:39:14.063Z,52.25
2022-10-31T18:40:45.844Z,159.67
2022-10-31T18:42:18.348Z,204.00
2022-10-31T18:43:50.067Z,211.75
2022-10-31T18:45:33.824Z,187.25
2022-10-31T18:47:13.612Z,192.25
2022-10-31T18:48:45.718Z,135.67
2022-10-31T18:50:17.516Z,124.75
2022-10-31T18:51:50.256Z,112.50
2022-10-31T18:53:22.022Z,98.00
2022-10-31T18:54:53.712Z,104.75
2022-10-31T18:56:25.629Z,100.75
2022-10-31T18:57:57.330Z,110.25
2022-10-31T18:59:29.042Z,113.00
2022-10-31T19:01:00.901Z,114.00
2022-10-31T19:02:32.754Z,117.25
2022-10-31T19:04:04.786Z,111.75
2022-10-31T19:05:36.525Z,112.75
2022-10-31T19:07:08.627Z,115.25
2022-10-31T19:08:40.895Z,119.25
2022-10-31T19:10:12.607Z,119.50
2022-10-31T19:11:44.292Z,124.00
2022-10-31T19:13:15.950Z,120.75
2022-10-31T19:14:49.003Z,115.25
2022-10-31T19:16:20.806Z,144.67
2022-10-31T19:17:52.914Z,167.00
2022-10-31T19:19:24.658Z,126.33
2022-10-31T19:20:56.339Z,126.25
2022-10-31T19:22:31.116Z,117.50
2022-10-31T19:24:03.015Z,112.75
2022-10-31T19:25:34.763Z,110.00
2022-10-31T19:27:06.622Z,116.00
2022-10-31T19:28:39.358Z,121.50
2022-10-31T19:30:11.793Z,118.25
2022-10-31T19:31:43.522Z,114.25
2022-10-31T19:33:15.586Z,116.00
2022-10-31T19:34:47.267Z,116.75
2022-10-31T19:36:19.723Z,115.50
2022-10-31T19:37:51.444Z,108.75
2022-10-31T19:39:23.194Z,110.00
2022-10-31T19:41:07.055Z,111.75
2022-10-31T19:42:38.728Z,102.25
2022-10-31T19:44:13.231Z,113.75
2022-10-31T19:45:55.315Z,103.00
2022-10-31T19:47:26.973Z,97.25
2022-10-31T19:48:59.089Z,107.50
2022-10-31T19:50:30.834Z,103.00
2022-10-31T19:52:02.586Z,96.75
2022-10-31T19:53:34.451Z,97.75
2022-10-31T19:55:06.518Z,92.25
2022-10-31T19:56:39.600Z,90.00
2022-10-31T19:58:11.716Z,91.00
2022-10-31T19:59:43.651Z,90.50
2022-10-31T20:01:22.308Z,87.75
2022-10-31T20:02:54.018Z,80.00
2022-10-31T20:04:25.823Z,81.80
2022-10-31T20:05:57.457Z,86.00
2022-10-31T20:07:29.147Z,80.50
2022-10-31T20:09:02.141Z,78.20
2022-10-31T20:10:33.788Z,74.00
2022-10-31T20:12:05.798Z,99.50
2022-10-31T20:13:37.570Z,81.60
2022-10-31T20:15:09.655Z,73.00
2022-10-31T20:16:44.148Z,72.25
2022-10-31T20:18:16.215Z,73.00
2022-10-31T20:19:48.234Z,66.75
2022-10-31T20:21:22.526Z,60.50
2022-10-31T20:22:54.217Z,59.50
2022-10-31T20:24:26.107Z,59.25
2022-10-31T20:25:57.813Z,59.75
2022-10-31T20:27:29.648Z,52.25
2022-10-31T20:29:01.624Z,55.25
2022-10-31T20:30:36.971Z,58.75
2022-10-31T20:32:08.700Z,50.75
2022-10-31T20:33:41.007Z,222.75
2022-10-31T20:35:12.912Z,172.50
2022-10-31T20:36:44.648Z,146.00
2022-10-31T20:38:16.409Z,130.00
2022-10-31T20:39:50.366Z,102.75
2022-10-31T20:41:24.423Z,92.00
2022-10-31T20:42:56.167Z,93.25
2022-10-31T20:44:27.939Z,85.75
2022-10-31T20:46:04.396Z,90.00
2022-10-31T20:47:36.135Z,76.00
2022-10-31T20:49:08.104Z,73.40
2022-10-31T20:50:39.761Z,69.20
2022-10-31T20:52:11.448Z,77.20
2022-10-31T20:53:43.193Z,72.80
2022-10-31T20:55:14.896Z,76.80
2022-10-31T20:56:46.653Z,70.60
2022-10-31T20:58:18.282Z,75.80
2022-10-31T20:59:50.196Z,73.80
2022-10-31T21:01:29.495Z,73.60
2022-10-31T21:03:01.639Z,75.20
2022-10-31T21:04:33.559Z,72.20
2022-10-31T21:06:05.522Z,76.80
2022-10-31T21:07:37.750Z,71.40
2022-10-31T21:09:09.464Z,73.80
2022-10-31T21:10:41.107Z,70.40
2022-10-31T21:12:12.858Z,73.80
2022-10-31T21:13:45.193Z,66.80
2022-10-31T21:15:16.888Z,67.50
2022-10-31T21:16:49.327Z,66.00
2022-10-31T21:18:21.423Z,64.00
2022-10-31T21:19:53.085Z,59.75
2022-10-31T21:21:29.011Z,62.25
2022-10-31T21:23:03.845Z,67.00
2022-10-31T21:24:35.906Z,60.00
2022-10-31T21:26:08.365Z,63.50
2022-10-31T21:27:40.153Z,59.00
2022-10-31T21:29:12.587Z,60.25
2022-10-31T21:30:46.092Z,54.75
2022-10-31T21:32:17.756Z,63.75
2022-10-31T21:33:49.740Z,60.00
2022-10-31T21:35:21.791Z,56.00
2022-10-31T21:36:53.504Z,61.25
2022-10-31T21:38:25.383Z,58.50
2022-10-31T21:39:57.088Z,65.50
2022-10-31T21:41:28.828Z,57.50
2022-10-31T21:43:00.814Z,61.75
2022-10-31T21:44:33.689Z,62.50
2022-10-31T21:46:06.032Z,66.50
2022-10-31T21:47:37.699Z,60.75
2022-10-31T21:49:10.114Z,61.00
2022-10-31T21:50:41.997Z,63.50
2022-10-31T21:52:13.872Z,62.25
2022-10-31T21:54:04.520Z,61.75
2022-10-31T21:55:36.248Z,63.75
2022-10-31T21:57:07.931Z,61.00
2022-10-31T21:58:39.779Z,63.25
2022-10-31T22:00:12.367Z,60.75
2022-10-31T22:01:44.264Z,57.25
2022-10-31T22:03:16.134Z,56.75
2022-10-31T22:04:50.184Z,54.25
2022-10-31T22:06:22.297Z,58.25
2022-10-31T22:07:54.092Z,61.00
2022-10-31T22:09:25.812Z,60.25
2022-10-31T22:10:57.963Z,60.00
2022-10-31T22:12:29.882Z,56.00
2022-10-31T22:14:01.908Z,56.25
2022-10-31T22:15:33.674Z,57.50
2022-10-31T22:17:05.483Z,58.50
2022-10-31T22:18:37.491Z,62.00
2022-10-31T22:20:09.587Z,60.50
2022-10-31T22:21:46.599Z,61.50
2022-10-31T22:23:18.341Z,56.75
2022-10-31T22:24:50.242Z,64.00
2022-10-31T22:26:22.156Z,61.75
2022-10-31T22:27:53.942Z,58.50
2022-10-31T22:29:28.836Z,52.50
2022-10-31T22:31:06.709Z,57.75
2022-10-31T22:32:38.503Z,58.75
2022-10-31T22:34:10.386Z,60.25
2022-10-31T22:35:42.065Z,55.75
2022-10-31T22:37:17.339Z,61.50
2022-10-31T22:38:51.470Z,60.00
2022-10-31T22:40:23.370Z,62.50
2022-10-31T22:41:55.107Z,75.40
2022-10-31T22:43:26.856Z,61.75
2022-10-31T22:45:01.670Z,66.25
2022-10-31T22:46:37.652Z,60.50
2022-10-31T22:48:09.468Z,68.00
2022-10-31T22:49:41.224Z,66.60
2022-10-31T22:51:14.636Z,75.20
2022-10-31T22:52:46.340Z,85.25
2022-10-31T22:54:18.361Z,83.75
2022-10-31T22:55:50.396Z,79.60
2022-10-31T22:57:22.074Z,114.00
2022-10-31T22:58:53.983Z,112.25
2022-10-31T23:00:25.665Z,104.50
2022-10-31T23:01:57.525Z,114.75
2022-10-31T23:03:29.507Z,103.75
2022-10-31T23:05:01.222Z,100.75
2022-10-31T23:06:33.077Z,104.00
2022-10-31T23:08:05.193Z,104.25
2022-10-31T23:09:37.034Z,100.50
2022-10-31T23:11:37.619Z,94.25
2022-10-31T23:13:27.993Z,101.50
2022-10-31T23:14:59.732Z,97.25
2022-10-31T23:16:31.490Z,97.00
2022-10-31T23:18:03.620Z,95.00
2022-10-31T23:19:36.183Z,104.25
2022-10-31T23:21:08.248Z,99.25
2022-10-31T23:22:40.844Z,93.50
2022-10-31T23:24:12.802Z,97.25
2022-10-31T23:26:03.387Z,109.75
2022-10-31T23:27:35.195Z,111.00
2022-10-31T23:29:06.935Z,119.25
2022-10-31T23:30:38.924Z,112.75
2022-10-31T23:32:16.585Z,117.50
2022-10-31T23:33:48.400Z,110.75
